Terminal Aerodrome Forecast
Issued by NWS

Home | Current Version | Previous Version | Text Only | Print | Product List | Glossary On
Versions: 1 2 3 4 5 6 7 8 9 10 11 12 13 14 15 16 17 18 19 20
000
FTUS46 KMTR 160500
TAFSNS
TAF
KSNS 160533Z 1606/1706 28008KT P6SM BKN015
     FM161000 29005KT 4SM BR OVC010
     FM161700 26004KT 6SM BR OVC015
     FM161800 28012KT P6SM SKC
     FM170300 27008KT P6SM BKN015=

USA.gov is the U.S. government's official web portal to all federal, state and local government web resources and services.